KLBF/LBF METAR and TAF weather

Enter ICAO airport designator
Station Type Date Time Source
KLBF METAR 2022/01/26 12:53 UTC NOAA

KLBF 261253Z AUTO 21009KT 10SM OVC007 M05/M07 A3017 RMK AO2 SLP250 T10501072


Station Type Date Time Source
KLBF Decoded METAR 2022/01/26 12:53 UTC NOAA

NORTH PLATTE REGIONAL AIRPORT , NE, United States (KLBF) 41-07N 100-40W 847M
Jan 26, 2022 - 07:53 AM EST / 2022.01.26 1253 UTC
Wind: from the SSW (210 degrees) at 10 MPH (9 KT):0
Visibility: 10 mile(s):0
Sky conditions: overcast
Temperature: 23.0 F (-5.0 C)
Windchill: 12 F (-11 C):1
Dew Point: 19.0 F (-7.2 C)
Relative Humidity: 84%
Pressure (altimeter): 30.17 in. Hg (1021 hPa)
ob: KLBF 261253Z AUTO 21009KT 10SM OVC007 M05/M07 A3017 RMK AO2 SLP250 T10501072
cycle: 13

Station Type Date Time Source
KLBF TAF 2022/01/26 12:40 UTC NOAA

TAF KLBF 261138Z 2612/2712 21009KT P6SM OVC006
FM261500 21010KT P6SM SCT009 SCT250
FM261600 22013G22KT P6SM SCT250
FM262300 26010KT P6SM SCT250
FM270300 33005KT P6SM BKN250

Example: see airport list